sensor_id;sensor_type;location;lat;lon;timestamp;pressure;altitude;pressure_sealevel;temperature;humidity
64080;BME280;51042;49.696;10.808;2022-12-11T00:01:09;97724.81;;;-1.94;100.00
64080;BME280;51042;49.696;10.808;2022-12-11T00:03:34;97727.50;;;-1.94;100.00
64080;BME280;51042;49.696;10.808;2022-12-11T00:06:03;97727.53;;;-1.90;100.00
64080;BME280;51042;49.696;10.808;2022-12-11T00:08:28;97724.09;;;-1.91;100.00
64080;BME280;51042;49.696;10.808;2022-12-11T00:10:53;97728.31;;;-1.90;100.00
64080;BME280;51042;49.696;10.808;2022-12-11T00:13:18;97734.84;;;-1.91;100.00
64080;BME280;51042;49.696;10.808;2022-12-11T00:15:44;97730.59;;;-1.92;100.00
64080;BME280;51042;49.696;10.808;2022-12-11T00:18:11;97736.38;;;-1.90;100.00
64080;BME280;51042;49.696;10.808;2022-12-11T00:20:36;97742.53;;;-1.89;100.00
64080;BME280;51042;49.696;10.808;2022-12-11T00:23:03;97744.84;;;-1.88;100.00
64080;BME280;51042;49.696;10.808;2022-12-11T00:25:28;97741.38;;;-1.88;100.00
64080;BME280;51042;49.696;10.808;2022-12-11T00:27:53;97742.56;;;-1.86;100.00
64080;BME280;51042;49.696;10.808;2022-12-11T00:30:19;97744.88;;;-1.84;100.00
64080;BME280;51042;49.696;10.808;2022-12-11T00:32:44;97739.13;;;-1.83;100.00
64080;BME280;51042;49.696;10.808;2022-12-11T00:35:09;97739.56;;;-1.81;100.00
64080;BME280;51042;49.696;10.808;2022-12-11T00:37:35;97745.69;;;-1.80;100.00
64080;BME280;51042;49.696;10.808;2022-12-11T00:40:00;97743.78;;;-1.80;100.00
64080;BME280;51042;49.696;10.808;2022-12-11T00:42:25;97737.63;;;-1.80;100.00
64080;BME280;51042;49.696;10.808;2022-12-11T00:44:50;97741.09;;;-1.80;100.00
64080;BME280;51042;49.696;10.808;2022-12-11T00:47:16;97736.88;;;-1.81;100.00
64080;BME280;51042;49.696;10.808;2022-12-11T00:49:41;97744.16;;;-1.81;100.00
64080;BME280;51042;49.696;10.808;2022-12-11T00:52:06;97747.19;;;-1.83;100.00
64080;BME280;51042;49.696;10.808;2022-12-11T00:54:32;97751.03;;;-1.84;100.00
64080;BME280;51042;49.696;10.808;2022-12-11T00:56:57;97743.72;;;-1.87;100.00
64080;BME280;51042;49.696;10.808;2022-12-11T00:59:23;97741.75;;;-1.90;100.00
64080;BME280;51042;49.696;10.808;2022-12-11T01:01:48;97746.75;;;-1.92;100.00
64080;BME280;51042;49.696;10.808;2022-12-11T01:04:13;97748.66;;;-1.92;100.00
64080;BME280;51042;49.696;10.808;2022-12-11T01:06:38;97749.44;;;-1.92;100.00
64080;BME280;51042;49.696;10.808;2022-12-11T01:09:04;97749.00;;;-1.94;100.00
64080;BME280;51042;49.696;10.808;2022-12-11T01:11:47;97758.22;;;-1.95;100.00
64080;BME280;51042;49.696;10.808;2022-12-11T01:14:13;97755.16;;;-1.93;100.00
64080;BME280;51042;49.696;10.808;2022-12-11T01:16:38;97758.66;;;-1.89;100.00
64080;BME280;51042;49.696;10.808;2022-12-11T01:19:03;97766.00;;;-1.86;100.00
64080;BME280;51042;49.696;10.808;2022-12-11T01:21:28;97762.53;;;-1.87;100.00
64080;BME280;51042;49.696;10.808;2022-12-11T01:23:54;97767.91;;;-1.87;100.00
64080;BME280;51042;49.696;10.808;2022-12-11T01:26:19;97771.38;;;-1.86;100.00
64080;BME280;51042;49.696;10.808;2022-12-11T01:28:47;97771.00;;;-1.85;100.00
64080;BME280;51042;49.696;10.808;2022-12-11T01:31:14;97772.19;;;-1.82;100.00
64080;BME280;51042;49.696;10.808;2022-12-11T01:33:39;97776.44;;;-1.78;100.00
64080;BME280;51042;49.696;10.808;2022-12-11T01:36:12;97765.75;;;-1.74;100.00
64080;BME280;51042;49.696;10.808;2022-12-11T01:38:38;97766.91;;;-1.72;100.00
64080;BME280;51042;49.696;10.808;2022-12-11T01:41:03;97765.41;;;-1.69;100.00
64080;BME280;51042;49.696;10.808;2022-12-11T01:43:28;97763.13;;;-1.67;100.00
64080;BME280;51042;49.696;10.808;2022-12-11T01:45:54;97761.59;;;-1.65;100.00
64080;BME280;51042;49.696;10.808;2022-12-11T01:48:26;97757.41;;;-1.62;100.00
64080;BME280;51042;49.696;10.808;2022-12-11T01:50:54;97761.59;;;-1.65;100.00
64080;BME280;51042;49.696;10.808;2022-12-11T01:53:21;97755.44;;;-1.65;100.00
64080;BME280;51042;49.696;10.808;2022-12-11T01:55:48;97756.97;;;-1.68;100.00
64080;BME280;51042;49.696;10.808;2022-12-11T01:58:14;97758.88;;;-1.68;100.00
64080;BME280;51042;49.696;10.808;2022-12-11T02:00:40;97758.09;;;-1.69;100.00
64080;BME280;51042;49.696;10.808;2022-12-11T02:03:06;97759.28;;;-1.66;100.00
64080;BME280;51042;49.696;10.808;2022-12-11T02:05:31;97767.75;;;-1.64;100.00
64080;BME280;51042;49.696;10.808;2022-12-11T02:07:57;97759.69;;;-1.64;100.00
64080;BME280;51042;49.696;10.808;2022-12-11T02:10:25;97761.59;;;-1.65;100.00
64080;BME280;51042;49.696;10.808;2022-12-11T02:15:54;97758.19;;;-1.61;100.00
64080;BME280;51042;49.696;10.808;2022-12-11T02:18:38;97770.47;;;-1.60;100.00
64080;BME280;51042;49.696;10.808;2022-12-11T02:28:48;97774.63;;;-1.67;100.00
64080;BME280;51042;49.696;10.808;2022-12-11T02:31:17;97771.91;;;-1.70;100.00
64080;BME280;51042;49.696;10.808;2022-12-11T02:33:45;97764.56;;;-1.77;100.00
64080;BME280;51042;49.696;10.808;2022-12-11T02:36:13;97769.50;;;-1.79;100.00
64080;BME280;51042;49.696;10.808;2022-12-11T02:38:40;97764.47;;;-1.84;100.00
64080;BME280;51042;49.696;10.808;2022-12-11T02:41:06;97762.19;;;-1.82;100.00
64080;BME280;51042;49.696;10.808;2022-12-11T02:43:33;97768.78;;;-1.79;100.00
64080;BME280;51042;49.696;10.808;2022-12-11T02:46:02;97767.25;;;-1.77;100.00
64080;BME280;51042;49.696;10.808;2022-12-11T02:48:28;97766.91;;;-1.72;100.00
64080;BME280;51042;49.696;10.808;2022-12-11T02:50:55;97760.03;;;-1.69;100.00
64080;BME280;51042;49.696;10.808;2022-12-11T02:53:22;97770.78;;;-1.69;100.00
64080;BME280;51042;49.696;10.808;2022-12-11T02:55:48;97771.19;;;-1.67;100.00
64080;BME280;51042;49.696;10.808;2022-12-11T02:58:17;97768.88;;;-1.69;100.00
64080;BME280;51042;49.696;10.808;2022-12-11T03:00:43;97767.28;;;-1.73;100.00
64080;BME280;51042;49.696;10.808;2022-12-11T03:03:09;97769.22;;;-1.70;100.00
64080;BME280;51042;49.696;10.808;2022-12-11T03:05:34;97773.06;;;-1.71;100.00
64080;BME280;51042;49.696;10.808;2022-12-11T03:07:59;97765.00;;;-1.71;100.00
64080;BME280;51042;49.696;10.808;2022-12-11T03:10:25;97759.59;;;-1.75;100.00
64080;BME280;51042;49.696;10.808;2022-12-11T03:12:51;97768.00;;;-1.76;100.00
64080;BME280;51042;49.696;10.808;2022-12-11T03:15:18;97771.84;;;-1.77;100.00
64080;BME280;51042;49.696;10.808;2022-12-11T03:25:30;97764.03;;;-1.89;100.00
64080;BME280;51042;49.696;10.808;2022-12-11T03:28:09;97769.81;;;-1.91;100.00
64080;BME280;51042;49.696;10.808;2022-12-11T03:30:36;97768.56;;;-1.97;100.00
64080;BME280;51042;49.696;10.808;2022-12-11T03:33:03;97759.69;;;-2.01;100.00
64080;BME280;51042;49.696;10.808;2022-12-11T03:35:34;97756.97;;;-2.04;100.00
64080;BME280;51042;49.696;10.808;2022-12-11T03:38:10;97752.72;;;-2.06;100.00
64080;BME280;51042;49.696;10.808;2022-12-11T03:40:39;97757.69;;;-2.08;100.00
64080;BME280;51042;49.696;10.808;2022-12-11T03:43:06;97754.22;;;-2.08;100.00
64080;BME280;51042;49.696;10.808;2022-12-11T03:45:31;97753.09;;;-2.07;100.00
64080;BME280;51042;49.696;10.808;2022-12-11T03:47:58;97748.50;;;-2.07;100.00
64080;BME280;51042;49.696;10.808;2022-12-11T03:50:25;97756.59;;;-2.03;100.00
64080;BME280;51042;49.696;10.808;2022-12-11T03:52:52;97752.41;;;-2.00;100.00
64080;BME280;51042;49.696;10.808;2022-12-11T03:55:18;97753.94;;;-1.99;100.00
64080;BME280;51042;49.696;10.808;2022-12-11T03:57:45;97759.34;;;-1.96;100.00
64080;BME280;51042;49.696;10.808;2022-12-11T04:00:12;97756.34;;;-1.91;100.00
64080;BME280;51042;49.696;10.808;2022-12-11T04:02:38;97757.53;;;-1.88;100.00
64080;BME280;51042;49.696;10.808;2022-12-11T04:05:03;97754.47;;;-1.87;100.00
64080;BME280;51042;49.696;10.808;2022-12-11T04:07:28;97762.13;;;-1.89;100.00
64080;BME280;51042;49.696;10.808;2022-12-11T04:09:55;97763.66;;;-1.88;100.00
64080;BME280;51042;49.696;10.808;2022-12-11T04:12:20;97764.09;;;-1.86;100.00
64080;BME280;51042;49.696;10.808;2022-12-11T04:14:45;97762.94;;;-1.85;100.00
64080;BME280;51042;49.696;10.808;2022-12-11T04:17:26;97761.41;;;-1.86;100.00
64080;BME280;51042;49.696;10.808;2022-12-11T04:20:10;97755.59;;;-1.88;100.00
64080;BME280;51042;49.696;10.808;2022-12-11T04:22:54;97761.72;;;-1.91;100.00
64080;BME280;51042;49.696;10.808;2022-12-11T04:25:38;97754.03;;;-1.92;100.00
64080;BME280;51042;49.696;10.808;2022-12-11T04:28:03;97755.53;;;-1.95;100.00
64080;BME280;51042;49.696;10.808;2022-12-11T04:30:28;97751.28;;;-1.96;100.00
64080;BME280;51042;49.696;10.808;2022-12-11T04:32:54;97753.97;;;-1.96;100.00
64080;BME280;51042;49.696;10.808;2022-12-11T04:35:19;97752.84;;;-1.95;100.00
64080;BME280;51042;49.696;10.808;2022-12-11T04:37:44;97747.81;;;-1.96;100.00
64080;BME280;51042;49.696;10.808;2022-12-11T04:40:11;97737.03;;;-2.00;100.00
64080;BME280;51042;49.696;10.808;2022-12-11T04:42:36;97747.00;;;-2.04;100.00
64080;BME280;51042;49.696;10.808;2022-12-11T04:45:01;97746.56;;;-2.06;100.00
64080;BME280;51042;49.696;10.808;2022-12-11T04:47:27;97750.03;;;-2.06;100.00
64080;BME280;51042;49.696;10.808;2022-12-11T04:49:52;97745.03;;;-2.07;100.00
64080;BME280;51042;49.696;10.808;2022-12-11T04:52:17;97748.13;;;-2.05;100.00
64080;BME280;51042;49.696;10.808;2022-12-11T04:54:43;97739.25;;;-2.09;100.00
64080;BME280;51042;49.696;10.808;2022-12-11T04:57:08;97745.41;;;-2.09;100.00
64080;BME280;51042;49.696;10.808;2022-12-11T04:59:33;97741.56;;;-2.08;100.00
64080;BME280;51042;49.696;10.808;2022-12-11T05:01:58;97741.94;;;-2.09;100.00
64080;BME280;51042;49.696;10.808;2022-12-11T05:04:24;97748.47;;;-2.10;100.00
64080;BME280;51042;49.696;10.808;2022-12-11T05:06:49;97740.03;;;-2.09;100.00
64080;BME280;51042;49.696;10.808;2022-12-11T05:09:14;97745.78;;;-2.10;100.00
64080;BME280;51042;49.696;10.808;2022-12-11T05:11:40;97734.59;;;-2.12;100.00
64080;BME280;51042;49.696;10.808;2022-12-11T05:14:05;97738.41;;;-2.17;100.00
64080;BME280;51042;49.696;10.808;2022-12-11T05:16:30;97733.44;;;-2.15;100.00
64080;BME280;51042;49.696;10.808;2022-12-11T05:18:55;97730.38;;;-2.13;100.00
64080;BME280;51042;49.696;10.808;2022-12-11T05:21:20;97733.47;;;-2.11;100.00
64080;BME280;51042;49.696;10.808;2022-12-11T05:23:45;97733.13;;;-2.10;100.00
64080;BME280;51042;49.696;10.808;2022-12-11T05:26:12;97727.75;;;-2.10;100.00
64080;BME280;51042;49.696;10.808;2022-12-11T05:28:38;97731.19;;;-2.09;100.00
64080;BME280;51042;49.696;10.808;2022-12-11T05:31:07;97730.78;;;-2.11;100.00
64080;BME280;51042;49.696;10.808;2022-12-11T05:33:35;97723.44;;;-2.14;100.00
64080;BME280;51042;49.696;10.808;2022-12-11T05:36:00;97728.78;;;-2.18;100.00
64080;BME280;51042;49.696;10.808;2022-12-11T05:38:25;97730.25;;;-2.24;100.00
64080;BME280;51042;49.696;10.808;2022-12-11T05:41:09;97736.66;;;-2.35;100.00
64080;BME280;51042;49.696;10.808;2022-12-11T05:43:36;97732.66;;;-2.49;100.00
64080;BME280;51042;49.696;10.808;2022-12-11T05:46:08;97720.91;;;-2.67;100.00
64080;BME280;51042;49.696;10.808;2022-12-11T05:48:34;97723.78;;;-2.82;100.00
64080;BME280;51042;49.696;10.808;2022-12-11T05:51:00;97721.28;;;-2.98;100.00
64080;BME280;51042;49.696;10.808;2022-12-11T05:53:26;97722.63;;;-3.11;100.00
64080;BME280;51042;49.696;10.808;2022-12-11T05:55:52;97727.41;;;-3.24;100.00
64080;BME280;51042;49.696;10.808;2022-12-11T05:58:17;97720.72;;;-3.34;100.00
64080;BME280;51042;49.696;10.808;2022-12-11T06:00:43;97722.19;;;-3.40;100.00
64080;BME280;51042;49.696;10.808;2022-12-11T06:03:08;97727.84;;;-3.45;100.00
64080;BME280;51042;49.696;10.808;2022-12-11T06:05:37;97726.53;;;-3.54;100.00
64080;BME280;51042;49.696;10.808;2022-12-11T06:08:02;97730.66;;;-3.60;100.00
64080;BME280;51042;49.696;10.808;2022-12-11T06:10:27;97733.69;;;-3.62;100.00
64080;BME280;51042;49.696;10.808;2022-12-11T06:12:52;97730.31;;;-3.59;100.00
64080;BME280;51042;49.696;10.808;2022-12-11T06:15:17;97731.13;;;-3.55;100.00
64080;BME280;51042;49.696;10.808;2022-12-11T06:17:43;97734.34;;;-3.46;100.00
64080;BME280;51042;49.696;10.808;2022-12-11T06:20:08;97735.69;;;-3.33;100.00
64080;BME280;51042;49.696;10.808;2022-12-11T06:22:33;97744.38;;;-3.16;100.00
64080;BME280;51042;49.696;10.808;2022-12-11T06:24:59;97738.03;;;-3.05;100.00
64080;BME280;51042;49.696;10.808;2022-12-11T06:27:24;97742.69;;;-3.02;100.00
64080;BME280;51042;49.696;10.808;2022-12-11T06:29:49;97740.00;;;-3.02;100.00
64080;BME280;51042;49.696;10.808;2022-12-11T06:32:14;97742.63;;;-3.05;100.00
64080;BME280;51042;49.696;10.808;2022-12-11T06:34:39;97740.25;;;-3.10;100.00
64080;BME280;51042;49.696;10.808;2022-12-11T06:37:04;97735.59;;;-3.13;100.00
64080;BME280;51042;49.696;10.808;2022-12-11T06:39:30;97727.06;;;-3.22;100.00
64080;BME280;51042;49.696;10.808;2022-12-11T06:41:56;97737.72;;;-3.26;100.00
64080;BME280;51042;49.696;10.808;2022-12-11T06:44:21;97731.88;;;-3.32;100.00
64080;BME280;51042;49.696;10.808;2022-12-11T06:46:46;97741.06;;;-3.33;100.00
64080;BME280;51042;49.696;10.808;2022-12-11T06:49:11;97731.75;;;-3.39;100.00
64080;BME280;51042;49.696;10.808;2022-12-11T06:51:36;97734.72;;;-3.47;100.00
64080;BME280;51042;49.696;10.808;2022-12-11T06:54:01;97736.13;;;-3.53;100.00
64080;BME280;51042;49.696;10.808;2022-12-11T06:56:27;97731.09;;;-3.58;100.00
64080;BME280;51042;49.696;10.808;2022-12-11T06:58:52;97736.03;;;-3.60;100.00
64080;BME280;51042;49.696;10.808;2022-12-11T07:03:42;97731.84;;;-3.58;100.00
64080;BME280;51042;49.696;10.808;2022-12-11T07:06:08;97724.94;;;-3.59;100.00
64080;BME280;51042;49.696;10.808;2022-12-11T07:08:33;97721.88;;;-3.57;100.00
64080;BME280;51042;49.696;10.808;2022-12-11T07:11:09;97724.63;;;-3.54;100.00
64080;BME280;51042;49.696;10.808;2022-12-11T07:13:35;97724.34;;;-3.49;100.00
64080;BME280;51042;49.696;10.808;2022-12-11T07:16:00;97724.44;;;-3.42;100.00
64080;BME280;51042;49.696;10.808;2022-12-11T07:18:28;97724.50;;;-3.38;100.00
64080;BME280;51042;49.696;10.808;2022-12-11T07:20:53;97715.31;;;-3.37;100.00
64080;BME280;51042;49.696;10.808;2022-12-11T07:23:18;97706.16;;;-3.36;100.00
64080;BME280;51042;49.696;10.808;2022-12-11T07:25:43;97709.28;;;-3.31;100.00
64080;BME280;51042;49.696;10.808;2022-12-11T07:28:09;97717.00;;;-3.29;100.00
64080;BME280;51042;49.696;10.808;2022-12-11T07:30:34;97713.22;;;-3.24;100.00
64080;BME280;51042;49.696;10.808;2022-12-11T07:32:59;97712.91;;;-3.19;100.00
64080;BME280;51042;49.696;10.808;2022-12-11T07:35:24;97722.53;;;-3.15;100.00
64080;BME280;51042;49.696;10.808;2022-12-11T07:37:49;97721.47;;;-3.10;100.00
64080;BME280;51042;49.696;10.808;2022-12-11T07:40:15;97712.34;;;-3.06;100.00
64080;BME280;51042;49.696;10.808;2022-12-11T07:42:40;97719.63;;;-3.06;100.00
64080;BME280;51042;49.696;10.808;2022-12-11T07:45:05;97724.63;;;-3.05;100.00
64080;BME280;51042;49.696;10.808;2022-12-11T07:47:31;97727.78;;;-2.99;100.00
64080;BME280;51042;49.696;10.808;2022-12-11T07:49:57;97734.72;;;-2.95;100.00
64080;BME280;51042;49.696;10.808;2022-12-11T07:52:22;97738.66;;;-2.89;100.00
64080;BME280;51042;49.696;10.808;2022-12-11T07:54:47;97739.06;;;-2.86;100.00
64080;BME280;51042;49.696;10.808;2022-12-11T07:57:12;97742.16;;;-2.84;100.00
64080;BME280;51042;49.696;10.808;2022-12-11T07:59:37;97740.97;;;-2.87;100.00
64080;BME280;51042;49.696;10.808;2022-12-11T08:02:03;97751.41;;;-2.82;100.00
64080;BME280;51042;49.696;10.808;2022-12-11T08:04:28;97748.34;;;-2.80;100.00
64080;BME280;51042;49.696;10.808;2022-12-11T08:06:53;97735.66;;;-2.83;100.00
64080;BME280;51042;49.696;10.808;2022-12-11T08:09:18;97744.91;;;-2.81;100.00
64080;BME280;51042;49.696;10.808;2022-12-11T08:11:49;97744.22;;;-2.74;100.00
64080;BME280;51042;49.696;10.808;2022-12-11T08:14:15;97758.50;;;-2.67;100.00
64080;BME280;51042;49.696;10.808;2022-12-11T08:16:40;97757.03;;;-2.61;100.00
64080;BME280;51042;49.696;10.808;2022-12-11T08:19:07;97753.25;;;-2.56;100.00
64080;BME280;51042;49.696;10.808;2022-12-11T08:21:33;97755.59;;;-2.55;100.00
64080;BME280;51042;49.696;10.808;2022-12-11T08:23:58;97756.47;;;-2.47;100.00
64080;BME280;51042;49.696;10.808;2022-12-11T08:26:24;97763.84;;;-2.40;100.00
64080;BME280;51042;49.696;10.808;2022-12-11T08:28:50;97763.50;;;-2.35;100.00
64080;BME280;51042;49.696;10.808;2022-12-11T08:31:15;97765.16;;;-2.27;100.00
64080;BME280;51042;49.696;10.808;2022-12-11T08:33:41;97764.78;;;-2.26;100.00
64080;BME280;51042;49.696;10.808;2022-12-11T08:36:07;97755.22;;;-2.23;100.00
64080;BME280;51042;49.696;10.808;2022-12-11T08:38:33;97761.41;;;-2.19;100.00
64080;BME280;51042;49.696;10.808;2022-12-11T08:40:58;97763.81;;;-2.11;100.00
64080;BME280;51042;49.696;10.808;2022-12-11T08:43:24;97770.41;;;-2.04;100.00
64080;BME280;51042;49.696;10.808;2022-12-11T08:45:49;97769.38;;;-1.93;100.00
64080;BME280;51042;49.696;10.808;2022-12-11T08:48:14;97764.09;;;-1.86;100.00
64080;BME280;51042;49.696;10.808;2022-12-11T08:50:40;97760.72;;;-1.76;99.63
64080;BME280;51042;49.696;10.808;2022-12-11T08:53:05;97768.16;;;-1.62;99.55
64080;BME280;51042;49.696;10.808;2022-12-11T08:55:30;97755.84;;;-1.63;98.06
64080;BME280;51042;49.696;10.808;2022-12-11T08:57:56;97757.34;;;-1.66;97.94
64080;BME280;51042;49.696;10.808;2022-12-11T09:00:21;97754.94;;;-1.78;97.19
64080;BME280;51042;49.696;10.808;2022-12-11T09:02:46;97755.59;;;-1.88;97.80
64080;BME280;51042;49.696;10.808;2022-12-11T09:05:12;97767.81;;;-1.94;98.10
64080;BME280;51042;49.696;10.808;2022-12-11T09:07:37;97764.47;;;-1.84;99.40
64080;BME280;51042;49.696;10.808;2022-12-11T09:10:03;97758.84;;;-1.72;98.54
64080;BME280;51042;49.696;10.808;2022-12-11T09:12:29;97756.13;;;-1.75;97.40
64080;BME280;51042;49.696;10.808;2022-12-11T09:14:55;97762.00;;;-1.62;96.73
64080;BME280;51042;49.696;10.808;2022-12-11T09:17:20;97754.66;;;-1.69;94.49
64080;BME280;51042;49.696;10.808;2022-12-11T09:19:45;97760.22;;;-1.88;93.23
64080;BME280;51042;49.696;10.808;2022-12-11T09:22:10;97755.97;;;-1.89;92.85
64080;BME280;51042;49.696;10.808;2022-12-11T09:24:36;97754.72;;;-1.99;93.09
64080;BME280;51042;49.696;10.808;2022-12-11T09:27:02;97746.47;;;-1.80;92.61
64080;BME280;51042;49.696;10.808;2022-12-11T09:29:28;97752.72;;;-1.69;91.59
64080;BME280;51042;49.696;10.808;2022-12-11T09:31:53;97751.19;;;-1.66;92.26
64080;BME280;51042;49.696;10.808;2022-12-11T09:34:19;97753.53;;;-1.65;91.83
64080;BME280;51042;49.696;10.808;2022-12-11T09:36:44;97759.84;;;-1.87;89.72
64080;BME280;51042;49.696;10.808;2022-12-11T09:39:10;97758.06;;;-1.72;91.74
64080;BME280;51042;49.696;10.808;2022-12-11T09:46:44;97760.63;;;-1.86;90.20
64080;BME280;51042;49.696;10.808;2022-12-11T09:49:31;97762.72;;;-1.66;92.67
64080;BME280;51042;49.696;10.808;2022-12-11T09:51:59;97760.03;;;-1.69;89.44
64080;BME280;51042;49.696;10.808;2022-12-11T09:54:25;97756.84;;;-1.78;91.37
64080;BME280;51042;49.696;10.808;2022-12-11T09:56:53;97750.38;;;-1.74;91.81
64080;BME280;51042;49.696;10.808;2022-12-11T10:06:48;97747.31;;;-1.72;90.73
64080;BME280;51042;49.696;10.808;2022-12-11T10:09:32;97750.31;;;-1.77;90.26
64080;BME280;51042;49.696;10.808;2022-12-11T10:14:27;97747.63;;;-1.81;89.57
64080;BME280;51042;49.696;10.808;2022-12-11T10:19:26;97739.22;;;-1.76;88.11
64080;BME280;51042;49.696;10.808;2022-12-11T10:21:52;97739.41;;;-1.95;89.42
64080;BME280;51042;49.696;10.808;2022-12-11T10:24:24;97734.47;;;-1.89;89.45
64080;BME280;51042;49.696;10.808;2022-12-11T10:26:54;97725.81;;;-2.09;88.95
64080;BME280;51042;49.696;10.808;2022-12-11T10:29:19;97727.75;;;-2.10;90.66
64080;BME280;51042;49.696;10.808;2022-12-11T10:34:11;97729.84;;;-1.89;91.56
64080;BME280;51042;49.696;10.808;2022-12-11T10:36:37;97729.13;;;-1.86;90.75
64080;BME280;51042;49.696;10.808;2022-12-11T10:39:13;97734.19;;;-1.77;90.79
64080;BME280;51042;49.696;10.808;2022-12-11T10:41:40;97728.81;;;-1.77;89.91
64080;BME280;51042;49.696;10.808;2022-12-11T10:49:27;97726.84;;;-1.84;90.52
64080;BME280;51042;49.696;10.808;2022-12-11T10:51:54;97722.97;;;-1.86;89.94
64080;BME280;51042;49.696;10.808;2022-12-11T10:54:39;97724.91;;;-1.87;91.24
64080;BME280;51042;49.696;10.808;2022-12-11T10:57:05;97726.41;;;-1.89;90.05
64080;BME280;51042;49.696;10.808;2022-12-11T10:59:38;97723.69;;;-1.93;89.94
64080;BME280;51042;49.696;10.808;2022-12-11T11:02:05;97719.09;;;-1.89;90.63
64080;BME280;51042;49.696;10.808;2022-12-11T11:04:32;97713.72;;;-1.89;90.27
64080;BME280;51042;49.696;10.808;2022-12-11T11:07:03;97709.50;;;-1.90;91.01
64080;BME280;51042;49.696;10.808;2022-12-11T11:09:34;97708.31;;;-1.92;90.44
64080;BME280;51042;49.696;10.808;2022-12-11T11:12:00;97708.75;;;-1.87;90.90
64080;BME280;51042;49.696;10.808;2022-12-11T11:14:25;97703.47;;;-1.80;90.19
64080;BME280;51042;49.696;10.808;2022-12-11T11:16:51;97702.28;;;-1.79;89.81
64080;BME280;51042;49.696;10.808;2022-12-11T11:19:32;97697.94;;;-1.94;89.12
64080;BME280;51042;49.696;10.808;2022-12-11T11:22:01;97699.16;;;-1.88;89.94
64080;BME280;51042;49.696;10.808;2022-12-11T11:26:52;97688.06;;;-1.83;89.48
64080;BME280;51042;49.696;10.808;2022-12-11T11:29:26;97692.69;;;-1.80;88.80
64080;BME280;51042;49.696;10.808;2022-12-11T11:31:52;97688.81;;;-1.86;88.69
64080;BME280;51042;49.696;10.808;2022-12-11T11:34:19;97686.94;;;-1.78;88.77
64080;BME280;51042;49.696;10.808;2022-12-11T11:36:54;97687.44;;;-1.66;88.56
64080;BME280;51042;49.696;10.808;2022-12-11T11:39:31;97678.19;;;-1.68;88.04
64080;BME280;51042;49.696;10.808;2022-12-11T11:41:59;97669.38;;;-1.65;87.92
64080;BME280;51042;49.696;10.808;2022-12-11T11:44:27;97665.91;;;-1.69;87.12
64080;BME280;51042;49.696;10.808;2022-12-11T11:46:56;97656.22;;;-1.77;87.11
64080;BME280;51042;49.696;10.808;2022-12-11T11:51:53;97652.22;;;-1.46;86.71
64080;BME280;51042;49.696;10.808;2022-12-11T11:56:49;97656.25;;;-0.36;82.45
64080;BME280;51042;49.696;10.808;2022-12-11T12:01:41;97641.28;;;-0.09;78.09
64080;BME280;51042;49.696;10.808;2022-12-11T12:04:07;97645.53;;;-0.08;78.95
64080;BME280;51042;49.696;10.808;2022-12-11T12:19:45;97638.22;;;0.43;76.52
64080;BME280;51042;49.696;10.808;2022-12-11T12:24:45;97635.13;;;0.30;78.24
64080;BME280;51042;49.696;10.808;2022-12-11T12:35:15;97631.09;;;1.30;73.87
64080;BME280;51042;49.696;10.808;2022-12-11T12:42:46;97624.72;;;0.07;76.72
64080;BME280;51042;49.696;10.808;2022-12-11T12:47:40;97620.34;;;-0.65;79.96
64080;BME280;51042;49.696;10.808;2022-12-11T12:50:19;97618.38;;;-0.71;79.67
64080;BME280;51042;49.696;10.808;2022-12-11T12:52:45;97614.88;;;-0.86;79.83
64080;BME280;51042;49.696;10.808;2022-12-11T12:57:44;97623.31;;;-0.95;80.07
64080;BME280;51042;49.696;10.808;2022-12-11T13:00:10;97611.81;;;-0.85;79.92
64080;BME280;51042;49.696;10.808;2022-12-11T13:02:49;97614.19;;;-0.65;80.84
64080;BME280;51042;49.696;10.808;2022-12-11T13:05:25;97611.94;;;-0.35;78.52
64080;BME280;51042;49.696;10.808;2022-12-11T13:07:52;97618.09;;;-0.45;79.66
64080;BME280;51042;49.696;10.808;2022-12-11T13:10:27;97623.47;;;-0.56;79.38
64080;BME280;51042;49.696;10.808;2022-12-11T13:12:54;97618.91;;;-0.37;80.48
64080;BME280;51042;49.696;10.808;2022-12-11T13:15:27;97615.41;;;-0.45;80.82
64080;BME280;51042;49.696;10.808;2022-12-11T13:17:53;97610.47;;;-0.18;79.08
64080;BME280;51042;49.696;10.808;2022-12-11T13:20:20;97618.94;;;-0.13;78.70
64080;BME280;51042;49.696;10.808;2022-12-11T13:22:46;97621.59;;;-0.23;79.07
64080;BME280;51042;49.696;10.808;2022-12-11T13:25:21;97617.31;;;-0.49;79.82
64080;BME280;51042;49.696;10.808;2022-12-11T13:27:46;97617.28;;;-0.63;80.69
64080;BME280;51042;49.696;10.808;2022-12-11T13:32:38;97618.88;;;-0.48;80.56
64080;BME280;51042;49.696;10.808;2022-12-11T13:35:04;97613.84;;;-0.46;79.90
64080;BME280;51042;49.696;10.808;2022-12-11T13:39:57;97612.78;;;-0.03;79.42
64080;BME280;51042;49.696;10.808;2022-12-11T13:42:27;97616.25;;;0.12;77.27
64080;BME280;51042;49.696;10.808;2022-12-11T13:44:53;97612.81;;;0.12;77.81
64080;BME280;51042;49.696;10.808;2022-12-11T13:47:19;97609.31;;;-0.03;78.48
64080;BME280;51042;49.696;10.808;2022-12-11T13:49:45;97615.09;;;-0.05;78.38
64080;BME280;51042;49.696;10.808;2022-12-11T13:52:22;97616.63;;;-0.14;77.26
64080;BME280;51042;49.696;10.808;2022-12-11T13:54:52;97613.03;;;-0.68;72.39
64080;BME280;51042;49.696;10.808;2022-12-11T13:57:22;97626.03;;;-0.91;74.12
64080;BME280;51042;49.696;10.808;2022-12-11T13:59:49;97626.81;;;-0.87;72.70
64080;BME280;51042;49.696;10.808;2022-12-11T14:02:24;97619.53;;;-0.79;73.68
64080;BME280;51042;49.696;10.808;2022-12-11T14:04:53;97620.72;;;-0.70;72.82
64080;BME280;51042;49.696;10.808;2022-12-11T14:07:24;97621.13;;;-0.64;72.72
64080;BME280;51042;49.696;10.808;2022-12-11T14:09:51;97624.59;;;-0.53;73.38
64080;BME280;51042;49.696;10.808;2022-12-11T14:12:19;97620.41;;;-0.44;73.63
64080;BME280;51042;49.696;10.808;2022-12-11T14:14:47;97624.59;;;-0.53;72.49
64080;BME280;51042;49.696;10.808;2022-12-11T14:17:14;97623.50;;;-0.42;74.84